sensor_id;sensor_type;location;lat;lon;timestamp;temperature;humidity
78467;SHT31;67759;51.972;5.650;2023-04-12T00:01:24;11.5;66.0
78467;SHT31;67759;51.972;5.650;2023-04-12T00:03:55;11.4;66.7
78467;SHT31;67759;51.972;5.650;2023-04-12T00:06:25;11.3;67.3
78467;SHT31;67759;51.972;5.650;2023-04-12T00:08:59;11.2;68.6
78467;SHT31;67759;51.972;5.650;2023-04-12T00:11:30;11.1;68.8
78467;SHT31;67759;51.972;5.650;2023-04-12T00:14:00;11.0;69.2
78467;SHT31;67759;51.972;5.650;2023-04-12T00:16:30;11.0;70.1
78467;SHT31;67759;51.972;5.650;2023-04-12T00:18:59;10.9;70.2
78467;SHT31;67759;51.972;5.650;2023-04-12T00:21:30;10.8;71.2
78467;SHT31;67759;51.972;5.650;2023-04-12T00:24:01;10.8;71.4
78467;SHT31;67759;51.972;5.650;2023-04-12T00:26:31;10.7;71.2
78467;SHT31;67759;51.972;5.650;2023-04-12T00:29:01;10.7;71.5
78467;SHT31;67759;51.972;5.650;2023-04-12T00:31:31;10.6;71.6
78467;SHT31;67759;51.972;5.650;2023-04-12T00:34:00;10.6;72.2
78467;SHT31;67759;51.972;5.650;2023-04-12T00:36:30;10.5;72.5
78467;SHT31;67759;51.972;5.650;2023-04-12T00:39:00;10.5;72.7
78467;SHT31;67759;51.972;5.650;2023-04-12T00:41:31;10.4;72.9
78467;SHT31;67759;51.972;5.650;2023-04-12T00:44:01;10.4;73.0
78467;SHT31;67759;51.972;5.650;2023-04-12T00:46:32;10.3;72.8
78467;SHT31;67759;51.972;5.650;2023-04-12T00:49:03;10.3;73.6
78467;SHT31;67759;51.972;5.650;2023-04-12T00:51:34;10.3;73.7
78467;SHT31;67759;51.972;5.650;2023-04-12T00:54:06;10.2;73.8
78467;SHT31;67759;51.972;5.650;2023-04-12T00:56:37;10.2;74.2
78467;SHT31;67759;51.972;5.650;2023-04-12T00:59:11;10.1;74.4
78467;SHT31;67759;51.972;5.650;2023-04-12T01:01:41;10.1;74.7
78467;SHT31;67759;51.972;5.650;2023-04-12T01:04:13;10.1;75.0
78467;SHT31;67759;51.972;5.650;2023-04-12T01:06:59;10.0;75.3
78467;SHT31;67759;51.972;5.650;2023-04-12T01:09:37;10.0;75.4
78467;SHT31;67759;51.972;5.650;2023-04-12T01:12:19;10.0;75.5
78467;SHT31;67759;51.972;5.650;2023-04-12T01:14:57;10.0;75.5
78467;SHT31;67759;51.972;5.650;2023-04-12T01:17:33;10.0;75.7
78467;SHT31;67759;51.972;5.650;2023-04-12T01:20:08;10.0;75.6
78467;SHT31;67759;51.972;5.650;2023-04-12T01:23:09;10.0;75.9
78467;SHT31;67759;51.972;5.650;2023-04-12T01:25:58;9.9;75.7
78467;SHT31;67759;51.972;5.650;2023-04-12T01:28:36;9.9;75.9
78467;SHT31;67759;51.972;5.650;2023-04-12T01:31:07;9.9;75.7
78467;SHT31;67759;51.972;5.650;2023-04-12T01:33:40;9.9;75.5
78467;SHT31;67759;51.972;5.650;2023-04-12T01:36:15;9.9;76.1
78467;SHT31;67759;51.972;5.650;2023-04-12T01:38:47;9.8;75.9
78467;SHT31;67759;51.972;5.650;2023-04-12T01:41:18;9.8;75.9
78467;SHT31;67759;51.972;5.650;2023-04-12T01:43:48;9.8;76.0
78467;SHT31;67759;51.972;5.650;2023-04-12T01:46:21;9.8;76.2
78467;SHT31;67759;51.972;5.650;2023-04-12T01:48:52;9.8;76.2
78467;SHT31;67759;51.972;5.650;2023-04-12T01:51:37;9.8;75.9
78467;SHT31;67759;51.972;5.650;2023-04-12T01:54:12;9.7;76.3
78467;SHT31;67759;51.972;5.650;2023-04-12T01:56:49;9.7;76.4
78467;SHT31;67759;51.972;5.650;2023-04-12T01:59:22;9.7;76.7
78467;SHT31;67759;51.972;5.650;2023-04-12T02:01:55;9.7;76.9
78467;SHT31;67759;51.972;5.650;2023-04-12T02:04:27;9.7;77.1
78467;SHT31;67759;51.972;5.650;2023-04-12T02:06:58;9.7;76.9
78467;SHT31;67759;51.972;5.650;2023-04-12T02:09:28;9.7;76.9
78467;SHT31;67759;51.972;5.650;2023-04-12T02:11:58;9.7;77.3
78467;SHT31;67759;51.972;5.650;2023-04-12T02:14:28;9.7;76.9
78467;SHT31;67759;51.972;5.650;2023-04-12T02:16:58;9.7;77.4
78467;SHT31;67759;51.972;5.650;2023-04-12T02:19:28;9.7;77.1
78467;SHT31;67759;51.972;5.650;2023-04-12T02:21:58;9.7;77.0
78467;SHT31;67759;51.972;5.650;2023-04-12T02:24:28;9.7;77.3
78467;SHT31;67759;51.972;5.650;2023-04-12T02:26:59;9.7;77.0
78467;SHT31;67759;51.972;5.650;2023-04-12T02:29:30;9.7;76.8
78467;SHT31;67759;51.972;5.650;2023-04-12T02:32:00;9.7;76.5
78467;SHT31;67759;51.972;5.650;2023-04-12T02:34:29;9.7;76.2
78467;SHT31;67759;51.972;5.650;2023-04-12T02:37:03;9.7;76.3
78467;SHT31;67759;51.972;5.650;2023-04-12T02:39:33;9.7;76.3
78467;SHT31;67759;51.972;5.650;2023-04-12T02:42:05;9.7;76.6
78467;SHT31;67759;51.972;5.650;2023-04-12T02:44:36;9.7;76.3
78467;SHT31;67759;51.972;5.650;2023-04-12T02:47:05;9.6;76.5
78467;SHT31;67759;51.972;5.650;2023-04-12T02:49:36;9.6;76.4
78467;SHT31;67759;51.972;5.650;2023-04-12T02:52:06;9.7;76.3
78467;SHT31;67759;51.972;5.650;2023-04-12T02:54:38;9.7;76.3
78467;SHT31;67759;51.972;5.650;2023-04-12T02:57:07;9.7;76.2
78467;SHT31;67759;51.972;5.650;2023-04-12T02:59:38;9.7;76.4
78467;SHT31;67759;51.972;5.650;2023-04-12T03:02:08;9.7;76.0
78467;SHT31;67759;51.972;5.650;2023-04-12T03:04:37;9.7;75.9
78467;SHT31;67759;51.972;5.650;2023-04-12T03:07:08;9.6;76.2
78467;SHT31;67759;51.972;5.650;2023-04-12T03:09:38;9.6;76.2
78467;SHT31;67759;51.972;5.650;2023-04-12T03:12:11;9.6;76.0
78467;SHT31;67759;51.972;5.650;2023-04-12T03:14:41;9.6;76.3
78467;SHT31;67759;51.972;5.650;2023-04-12T03:17:11;9.6;76.8
78467;SHT31;67759;51.972;5.650;2023-04-12T03:19:40;9.6;76.4
78467;SHT31;67759;51.972;5.650;2023-04-12T03:22:12;9.6;76.4
78467;SHT31;67759;51.972;5.650;2023-04-12T03:24:42;9.6;76.8
78467;SHT31;67759;51.972;5.650;2023-04-12T03:27:13;9.6;76.6
78467;SHT31;67759;51.972;5.650;2023-04-12T03:29:42;9.5;76.0
78467;SHT31;67759;51.972;5.650;2023-04-12T03:32:12;9.5;76.6
78467;SHT31;67759;51.972;5.650;2023-04-12T03:34:43;9.5;76.6
78467;SHT31;67759;51.972;5.650;2023-04-12T03:37:12;9.5;76.8
78467;SHT31;67759;51.972;5.650;2023-04-12T03:39:42;9.5;77.1
78467;SHT31;67759;51.972;5.650;2023-04-12T03:42:14;9.5;77.0
78467;SHT31;67759;51.972;5.650;2023-04-12T03:44:44;9.5;77.2
78467;SHT31;67759;51.972;5.650;2023-04-12T03:47:15;9.5;77.2
78467;SHT31;67759;51.972;5.650;2023-04-12T03:49:46;9.4;77.6
78467;SHT31;67759;51.972;5.650;2023-04-12T03:52:16;9.4;77.9
78467;SHT31;67759;51.972;5.650;2023-04-12T03:54:46;9.4;78.5
78467;SHT31;67759;51.972;5.650;2023-04-12T03:57:15;9.4;78.6
78467;SHT31;67759;51.972;5.650;2023-04-12T03:59:45;9.4;78.3
78467;SHT31;67759;51.972;5.650;2023-04-12T04:02:15;9.3;78.4
78467;SHT31;67759;51.972;5.650;2023-04-12T04:04:45;9.3;78.6
78467;SHT31;67759;51.972;5.650;2023-04-12T04:07:17;9.3;78.7
78467;SHT31;67759;51.972;5.650;2023-04-12T04:09:48;9.3;79.2
78467;SHT31;67759;51.972;5.650;2023-04-12T04:12:18;9.3;79.2
78467;SHT31;67759;51.972;5.650;2023-04-12T04:14:49;9.3;78.9
78467;SHT31;67759;51.972;5.650;2023-04-12T04:17:18;9.3;78.9
78467;SHT31;67759;51.972;5.650;2023-04-12T04:19:49;9.3;79.0
78467;SHT31;67759;51.972;5.650;2023-04-12T04:22:19;9.3;79.0
78467;SHT31;67759;51.972;5.650;2023-04-12T04:24:49;9.3;79.0
78467;SHT31;67759;51.972;5.650;2023-04-12T04:27:19;9.3;79.2
78467;SHT31;67759;51.972;5.650;2023-04-12T04:29:51;9.3;79.4
78467;SHT31;67759;51.972;5.650;2023-04-12T04:32:20;9.3;79.4
78467;SHT31;67759;51.972;5.650;2023-04-12T04:34:56;9.3;79.6
78467;SHT31;67759;51.972;5.650;2023-04-12T04:37:27;9.3;79.7
78467;SHT31;67759;51.972;5.650;2023-04-12T04:39:57;9.3;79.7
78467;SHT31;67759;51.972;5.650;2023-04-12T04:42:27;9.3;79.7
78467;SHT31;67759;51.972;5.650;2023-04-12T04:44:59;9.3;79.7
78467;SHT31;67759;51.972;5.650;2023-04-12T04:47:35;9.3;79.7
78467;SHT31;67759;51.972;5.650;2023-04-12T04:50:06;9.3;79.9
78467;SHT31;67759;51.972;5.650;2023-04-12T04:52:36;9.3;79.8
78467;SHT31;67759;51.972;5.650;2023-04-12T04:55:10;9.3;79.9
78467;SHT31;67759;51.972;5.650;2023-04-12T04:57:40;9.3;79.7
78467;SHT31;67759;51.972;5.650;2023-04-12T05:00:13;9.3;80.2
78467;SHT31;67759;51.972;5.650;2023-04-12T05:02:43;9.3;80.3
78467;SHT31;67759;51.972;5.650;2023-04-12T05:05:12;9.3;80.2
78467;SHT31;67759;51.972;5.650;2023-04-12T05:07:44;9.3;80.8
78467;SHT31;67759;51.972;5.650;2023-04-12T05:10:14;9.3;80.6
78467;SHT31;67759;51.972;5.650;2023-04-12T05:12:43;9.3;80.1
78467;SHT31;67759;51.972;5.650;2023-04-12T05:15:13;9.4;79.9
78467;SHT31;67759;51.972;5.650;2023-04-12T05:17:43;9.4;80.2
78467;SHT31;67759;51.972;5.650;2023-04-12T05:20:13;9.4;80.8
78467;SHT31;67759;51.972;5.650;2023-04-12T05:22:43;9.4;80.4
78467;SHT31;67759;51.972;5.650;2023-04-12T05:25:13;9.4;80.1
78467;SHT31;67759;51.972;5.650;2023-04-12T05:27:43;9.4;80.3
78467;SHT31;67759;51.972;5.650;2023-04-12T05:30:15;9.4;80.2
78467;SHT31;67759;51.972;5.650;2023-04-12T05:32:44;9.5;80.7
78467;SHT31;67759;51.972;5.650;2023-04-12T05:35:14;9.5;80.3
78467;SHT31;67759;51.972;5.650;2023-04-12T05:37:43;9.5;80.1
78467;SHT31;67759;51.972;5.650;2023-04-12T05:40:13;9.6;79.8
78467;SHT31;67759;51.972;5.650;2023-04-12T05:42:43;9.6;80.0
78467;SHT31;67759;51.972;5.650;2023-04-12T05:45:13;9.6;79.8
78467;SHT31;67759;51.972;5.650;2023-04-12T05:47:43;9.5;80.0
78467;SHT31;67759;51.972;5.650;2023-04-12T05:50:12;9.5;79.8
78467;SHT31;67759;51.972;5.650;2023-04-12T05:52:45;9.5;80.2
78467;SHT31;67759;51.972;5.650;2023-04-12T05:55:19;9.5;80.5
78467;SHT31;67759;51.972;5.650;2023-04-12T05:57:49;9.5;80.9
78467;SHT31;67759;51.972;5.650;2023-04-12T06:00:19;9.5;80.9
78467;SHT31;67759;51.972;5.650;2023-04-12T06:02:50;9.5;81.0
78467;SHT31;67759;51.972;5.650;2023-04-12T06:05:20;9.5;81.1
78467;SHT31;67759;51.972;5.650;2023-04-12T06:07:50;9.5;81.5
78467;SHT31;67759;51.972;5.650;2023-04-12T06:10:19;9.5;81.5
78467;SHT31;67759;51.972;5.650;2023-04-12T06:12:49;9.5;81.2
78467;SHT31;67759;51.972;5.650;2023-04-12T06:15:18;9.6;81.2
78467;SHT31;67759;51.972;5.650;2023-04-12T06:17:48;9.6;81.2
78467;SHT31;67759;51.972;5.650;2023-04-12T06:20:18;9.6;81.6
78467;SHT31;67759;51.972;5.650;2023-04-12T06:22:48;9.5;81.4
78467;SHT31;67759;51.972;5.650;2023-04-12T06:25:17;9.6;81.9
78467;SHT31;67759;51.972;5.650;2023-04-12T06:27:49;9.6;81.7
78467;SHT31;67759;51.972;5.650;2023-04-12T06:30:19;9.6;81.6
78467;SHT31;67759;51.972;5.650;2023-04-12T06:32:49;9.6;81.7
78467;SHT31;67759;51.972;5.650;2023-04-12T06:35:19;9.6;81.9
78467;SHT31;67759;51.972;5.650;2023-04-12T06:37:49;9.6;81.9
78467;SHT31;67759;51.972;5.650;2023-04-12T06:40:19;9.6;82.0
78467;SHT31;67759;51.972;5.650;2023-04-12T06:42:49;9.7;81.6
78467;SHT31;67759;51.972;5.650;2023-04-12T06:45:18;9.7;81.9
78467;SHT31;67759;51.972;5.650;2023-04-12T06:47:48;9.7;82.1
78467;SHT31;67759;51.972;5.650;2023-04-12T06:50:18;9.7;82.1
78467;SHT31;67759;51.972;5.650;2023-04-12T06:52:48;9.7;81.6
78467;SHT31;67759;51.972;5.650;2023-04-12T06:55:17;9.8;81.7
78467;SHT31;67759;51.972;5.650;2023-04-12T06:57:47;9.8;81.8
78467;SHT31;67759;51.972;5.650;2023-04-12T07:00:18;9.8;82.0
78467;SHT31;67759;51.972;5.650;2023-04-12T07:02:48;9.8;82.0
78467;SHT31;67759;51.972;5.650;2023-04-12T07:05:18;9.8;81.8
78467;SHT31;67759;51.972;5.650;2023-04-12T07:07:48;9.9;81.8
78467;SHT31;67759;51.972;5.650;2023-04-12T07:10:17;9.9;81.6
78467;SHT31;67759;51.972;5.650;2023-04-12T07:12:47;10.0;81.4
78467;SHT31;67759;51.972;5.650;2023-04-12T07:15:18;10.0;81.3
78467;SHT31;67759;51.972;5.650;2023-04-12T07:17:48;10.0;81.4
78467;SHT31;67759;51.972;5.650;2023-04-12T07:20:18;10.1;81.8
78467;SHT31;67759;51.972;5.650;2023-04-12T07:22:48;10.1;81.8
78467;SHT31;67759;51.972;5.650;2023-04-12T07:25:18;10.1;81.6
78467;SHT31;67759;51.972;5.650;2023-04-12T07:27:47;10.2;82.0
78467;SHT31;67759;51.972;5.650;2023-04-12T07:30:17;10.3;81.6
78467;SHT31;67759;51.972;5.650;2023-04-12T07:32:50;10.3;81.5
78467;SHT31;67759;51.972;5.650;2023-04-12T07:35:19;10.4;80.5
78467;SHT31;67759;51.972;5.650;2023-04-12T07:37:49;10.4;80.8
78467;SHT31;67759;51.972;5.650;2023-04-12T07:40:19;10.4;81.0
78467;SHT31;67759;51.972;5.650;2023-04-12T07:42:49;10.5;81.7
78467;SHT31;67759;51.972;5.650;2023-04-12T07:45:19;10.5;82.2
78467;SHT31;67759;51.972;5.650;2023-04-12T07:47:49;10.6;81.4
78467;SHT31;67759;51.972;5.650;2023-04-12T07:50:19;10.6;81.1
78467;SHT31;67759;51.972;5.650;2023-04-12T07:52:49;10.7;81.5
78467;SHT31;67759;51.972;5.650;2023-04-12T07:55:18;10.8;80.8
78467;SHT31;67759;51.972;5.650;2023-04-12T07:57:48;10.8;79.5
78467;SHT31;67759;51.972;5.650;2023-04-12T08:00:19;10.9;78.3
78467;SHT31;67759;51.972;5.650;2023-04-12T08:02:49;10.9;78.6
78467;SHT31;67759;51.972;5.650;2023-04-12T08:05:19;10.9;78.7
78467;SHT31;67759;51.972;5.650;2023-04-12T08:07:48;10.9;79.8
78467;SHT31;67759;51.972;5.650;2023-04-12T08:10:18;11.0;78.0
78467;SHT31;67759;51.972;5.650;2023-04-12T08:12:47;11.0;77.6
78467;SHT31;67759;51.972;5.650;2023-04-12T08:15:17;11.1;76.9
78467;SHT31;67759;51.972;5.650;2023-04-12T08:17:47;11.1;77.6
78467;SHT31;67759;51.972;5.650;2023-04-12T08:20:17;11.2;79.0
78467;SHT31;67759;51.972;5.650;2023-04-12T08:22:47;11.3;77.9
78467;SHT31;67759;51.972;5.650;2023-04-12T08:25:20;11.4;78.5
78467;SHT31;67759;51.972;5.650;2023-04-12T08:27:51;11.5;76.9
78467;SHT31;67759;51.972;5.650;2023-04-12T08:30:22;11.5;76.4
78467;SHT31;67759;51.972;5.650;2023-04-12T08:32:54;11.6;76.0
78467;SHT31;67759;51.972;5.650;2023-04-12T08:35:24;11.6;76.5
78467;SHT31;67759;51.972;5.650;2023-04-12T08:37:54;11.7;75.0
78467;SHT31;67759;51.972;5.650;2023-04-12T08:40:24;11.7;74.5
78467;SHT31;67759;51.972;5.650;2023-04-12T08:42:56;11.7;75.0
78467;SHT31;67759;51.972;5.650;2023-04-12T08:45:31;11.8;75.4
78467;SHT31;67759;51.972;5.650;2023-04-12T08:48:04;11.8;75.6
78467;SHT31;67759;51.972;5.650;2023-04-12T08:50:34;11.8;74.9
78467;SHT31;67759;51.972;5.650;2023-04-12T08:53:05;11.9;75.8
78467;SHT31;67759;51.972;5.650;2023-04-12T08:55:38;12.0;75.0
78467;SHT31;67759;51.972;5.650;2023-04-12T08:58:08;12.1;73.6
78467;SHT31;67759;51.972;5.650;2023-04-12T09:00:38;12.2;74.3
78467;SHT31;67759;51.972;5.650;2023-04-12T09:03:08;12.3;74.8
78467;SHT31;67759;51.972;5.650;2023-04-12T09:05:38;12.4;72.6
78467;SHT31;67759;51.972;5.650;2023-04-12T09:08:08;12.5;71.8
78467;SHT31;67759;51.972;5.650;2023-04-12T09:10:38;12.6;72.8
78467;SHT31;67759;51.972;5.650;2023-04-12T09:13:09;12.7;72.0
78467;SHT31;67759;51.972;5.650;2023-04-12T09:15:48;12.8;70.5
78467;SHT31;67759;51.972;5.650;2023-04-12T09:18:21;13.0;70.1
78467;SHT31;67759;51.972;5.650;2023-04-12T09:21:07;13.2;69.1
78467;SHT31;67759;51.972;5.650;2023-04-12T09:23:38;13.4;67.3
78467;SHT31;67759;51.972;5.650;2023-04-12T09:26:07;13.6;65.8
78467;SHT31;67759;51.972;5.650;2023-04-12T09:28:44;13.8;65.0
78467;SHT31;67759;51.972;5.650;2023-04-12T09:31:16;13.9;62.9
78467;SHT31;67759;51.972;5.650;2023-04-12T09:33:45;13.9;63.6
78467;SHT31;67759;51.972;5.650;2023-04-12T09:36:16;14.0;63.8
78467;SHT31;67759;51.972;5.650;2023-04-12T09:38:59;14.1;64.1
78467;SHT31;67759;51.972;5.650;2023-04-12T09:41:30;14.2;62.3
78467;SHT31;67759;51.972;5.650;2023-04-12T09:44:01;14.3;61.8
78467;SHT31;67759;51.972;5.650;2023-04-12T09:46:32;14.4;61.8
78467;SHT31;67759;51.972;5.650;2023-04-12T09:49:03;14.5;60.2
78467;SHT31;67759;51.972;5.650;2023-04-12T09:51:33;14.5;61.9
78467;SHT31;67759;51.972;5.650;2023-04-12T09:54:05;14.6;60.1
78467;SHT31;67759;51.972;5.650;2023-04-12T09:56:36;14.7;58.7
78467;SHT31;67759;51.972;5.650;2023-04-12T09:59:06;14.7;59.3
78467;SHT31;67759;51.972;5.650;2023-04-12T10:01:38;14.8;58.9
78467;SHT31;67759;51.972;5.650;2023-04-12T10:04:08;14.9;58.3
78467;SHT31;67759;51.972;5.650;2023-04-12T10:06:38;15.0;58.7
78467;SHT31;67759;51.972;5.650;2023-04-12T10:09:08;15.0;57.6
78467;SHT31;67759;51.972;5.650;2023-04-12T10:11:39;15.1;56.4
78467;SHT31;67759;51.972;5.650;2023-04-12T10:14:10;15.1;56.9
78467;SHT31;67759;51.972;5.650;2023-04-12T10:16:43;15.0;58.3
78467;SHT31;67759;51.972;5.650;2023-04-12T10:19:16;15.0;59.0
78467;SHT31;67759;51.972;5.650;2023-04-12T10:21:45;14.9;57.6
78467;SHT31;67759;51.972;5.650;2023-04-12T10:24:15;14.7;58.6
78467;SHT31;67759;51.972;5.650;2023-04-12T10:26:46;14.5;58.7
78467;SHT31;67759;51.972;5.650;2023-04-12T10:29:23;14.4;60.6
78467;SHT31;67759;51.972;5.650;2023-04-12T10:31:54;14.3;61.1
78467;SHT31;67759;51.972;5.650;2023-04-12T10:34:26;14.3;60.5
78467;SHT31;67759;51.972;5.650;2023-04-12T10:36:57;14.2;58.9
78467;SHT31;67759;51.972;5.650;2023-04-12T10:39:38;14.3;54.3
78467;SHT31;67759;51.972;5.650;2023-04-12T10:42:20;14.3;53.2
78467;SHT31;67759;51.972;5.650;2023-04-12T10:44:52;14.3;53.6
78467;SHT31;67759;51.972;5.650;2023-04-12T10:47:56;14.3;54.9
78467;SHT31;67759;51.972;5.650;2023-04-12T10:50:36;14.3;55.7
78467;SHT31;67759;51.972;5.650;2023-04-12T10:53:24;14.4;54.5
78467;SHT31;67759;51.972;5.650;2023-04-12T10:55:54;14.5;54.9
78467;SHT31;67759;51.972;5.650;2023-04-12T10:58:58;14.6;54.6
78467;SHT31;67759;51.972;5.650;2023-04-12T11:01:28;14.7;55.6
78467;SHT31;67759;51.972;5.650;2023-04-12T11:04:06;14.8;55.2
78467;SHT31;67759;51.972;5.650;2023-04-12T11:07:09;14.9;54.8
78467;SHT31;67759;51.972;5.650;2023-04-12T11:09:44;15.0;54.8
78467;SHT31;67759;51.972;5.650;2023-04-12T11:12:15;15.1;54.2
78467;SHT31;67759;51.972;5.650;2023-04-12T11:14:49;15.2;55.7
78467;SHT31;67759;51.972;5.650;2023-04-12T11:17:24;15.3;53.7
78467;SHT31;67759;51.972;5.650;2023-04-12T11:19:56;15.4;54.1
78467;SHT31;67759;51.972;5.650;2023-04-12T11:22:29;15.4;52.8
78467;SHT31;67759;51.972;5.650;2023-04-12T11:25:00;15.4;53.3
78467;SHT31;67759;51.972;5.650;2023-04-12T11:27:30;15.4;52.8
78467;SHT31;67759;51.972;5.650;2023-04-12T11:30:01;15.4;52.7
78467;SHT31;67759;51.972;5.650;2023-04-12T11:32:30;15.4;53.7
78467;SHT31;67759;51.972;5.650;2023-04-12T11:35:01;15.4;53.0
78467;SHT31;67759;51.972;5.650;2023-04-12T11:37:33;15.3;52.6
78467;SHT31;67759;51.972;5.650;2023-04-12T11:40:04;15.2;49.3
78467;SHT31;67759;51.972;5.650;2023-04-12T11:42:40;15.0;44.8
78467;SHT31;67759;51.972;5.650;2023-04-12T11:45:13;14.7;47.8
78467;SHT31;67759;51.972;5.650;2023-04-12T11:47:47;14.2;51.5
78467;SHT31;67759;51.972;5.650;2023-04-12T11:50:29;13.9;52.9
78467;SHT31;67759;51.972;5.650;2023-04-12T11:53:10;13.8;54.8
78467;SHT31;67759;51.972;5.650;2023-04-12T11:55:40;13.7;53.7
78467;SHT31;67759;51.972;5.650;2023-04-12T11:58:09;13.7;54.5
78467;SHT31;67759;51.972;5.650;2023-04-12T12:00:40;13.8;55.1
78467;SHT31;67759;51.972;5.650;2023-04-12T12:03:10;13.9;56.2
78467;SHT31;67759;51.972;5.650;2023-04-12T12:05:41;14.0;56.0
78467;SHT31;67759;51.972;5.650;2023-04-12T12:08:11;14.1;55.4
78467;SHT31;67759;51.972;5.650;2023-04-12T12:10:41;14.2;53.4
78467;SHT31;67759;51.972;5.650;2023-04-12T12:13:12;14.4;52.5
78467;SHT31;67759;51.972;5.650;2023-04-12T12:15:44;14.5;51.0
78467;SHT31;67759;51.972;5.650;2023-04-12T12:18:14;14.6;47.4
78467;SHT31;67759;51.972;5.650;2023-04-12T12:20:47;14.8;46.8
78467;SHT31;67759;51.972;5.650;2023-04-12T12:23:28;14.9;46.7
78467;SHT31;67759;51.972;5.650;2023-04-12T12:26:02;15.0;46.1
78467;SHT31;67759;51.972;5.650;2023-04-12T12:28:37;15.1;46.7
78467;SHT31;67759;51.972;5.650;2023-04-12T12:31:09;15.1;46.1
78467;SHT31;67759;51.972;5.650;2023-04-12T12:33:39;15.2;44.8
78467;SHT31;67759;51.972;5.650;2023-04-12T12:36:10;15.4;45.0
78467;SHT31;67759;51.972;5.650;2023-04-12T12:38:40;15.4;44.4
78467;SHT31;67759;51.972;5.650;2023-04-12T12:41:19;15.5;42.8
78467;SHT31;67759;51.972;5.650;2023-04-12T12:43:51;15.6;42.1
78467;SHT31;67759;51.972;5.650;2023-04-12T12:46:21;15.6;41.2
78467;SHT31;67759;51.972;5.650;2023-04-12T12:48:53;15.6;40.8
78467;SHT31;67759;51.972;5.650;2023-04-12T12:51:22;15.6;42.3
78467;SHT31;67759;51.972;5.650;2023-04-12T12:53:55;15.6;42.0
78467;SHT31;67759;51.972;5.650;2023-04-12T12:56:24;15.6;41.5
78467;SHT31;67759;51.972;5.650;2023-04-12T12:58:54;15.6;40.8
78467;SHT31;67759;51.972;5.650;2023-04-12T13:01:23;15.6;41.0
78467;SHT31;67759;51.972;5.650;2023-04-12T13:03:53;15.5;40.7
78467;SHT31;67759;51.972;5.650;2023-04-12T13:06:25;15.5;39.7
78467;SHT31;67759;51.972;5.650;2023-04-12T13:08:55;15.5;40.4
78467;SHT31;67759;51.972;5.650;2023-04-12T13:11:26;15.5;40.9
78467;SHT31;67759;51.972;5.650;2023-04-12T13:13:56;15.4;41.4
78467;SHT31;67759;51.972;5.650;2023-04-12T13:16:26;15.4;40.6
78467;SHT31;67759;51.972;5.650;2023-04-12T13:18:55;15.4;40.7
78467;SHT31;67759;51.972;5.650;2023-04-12T13:21:25;15.4;40.5
78467;SHT31;67759;51.972;5.650;2023-04-12T13:23:54;15.4;41.6
78467;SHT31;67759;51.972;5.650;2023-04-12T13:26:24;15.4;41.5
78467;SHT31;67759;51.972;5.650;2023-04-12T13:28:54;15.4;41.6
78467;SHT31;67759;51.972;5.650;2023-04-12T13:31:23;15.4;43.1
78467;SHT31;67759;51.972;5.650;2023-04-12T13:33:53;15.3;42.5
78467;SHT31;67759;51.972;5.650;2023-04-12T13:36:22;15.2;41.7
78467;SHT31;67759;51.972;5.650;2023-04-12T13:38:53;15.1;42.9
78467;SHT31;67759;51.972;5.650;2023-04-12T13:41:22;15.1;43.4
78467;SHT31;67759;51.972;5.650;2023-04-12T13:43:52;15.0;44.1
78467;SHT31;67759;51.972;5.650;2023-04-12T13:46:22;15.0;42.7
78467;SHT31;67759;51.972;5.650;2023-04-12T13:48:51;15.0;44.3
78467;SHT31;67759;51.972;5.650;2023-04-12T13:51:22;14.9;45.0
78467;SHT31;67759;51.972;5.650;2023-04-12T13:53:54;14.8;45.0
78467;SHT31;67759;51.972;5.650;2023-04-12T13:56:24;14.8;44.3
78467;SHT31;67759;51.972;5.650;2023-04-12T13:58:55;14.8;44.9
78467;SHT31;67759;51.972;5.650;2023-04-12T14:01:25;14.8;44.3
78467;SHT31;67759;51.972;5.650;2023-04-12T14:03:56;14.7;44.9
78467;SHT31;67759;51.972;5.650;2023-04-12T14:06:25;14.7;45.5
78467;SHT31;67759;51.972;5.650;2023-04-12T14:08:57;14.7;45.6
78467;SHT31;67759;51.972;5.650;2023-04-12T14:11:46;14.7;45.4
78467;SHT31;67759;51.972;5.650;2023-04-12T14:14:16;14.6;44.7
78467;SHT31;67759;51.972;5.650;2023-04-12T14:16:45;14.6;45.0
78467;SHT31;67759;51.972;5.650;2023-04-12T14:19:15;14.5;46.5
78467;SHT31;67759;51.972;5.650;2023-04-12T14:21:46;14.4;47.0
78467;SHT31;67759;51.972;5.650;2023-04-12T14:24:17;14.3;47.6
78467;SHT31;67759;51.972;5.650;2023-04-12T14:26:47;14.3;47.5
78467;SHT31;67759;51.972;5.650;2023-04-12T14:29:18;14.3;47.8
78467;SHT31;67759;51.972;5.650;2023-04-12T14:31:49;14.3;47.4
78467;SHT31;67759;51.972;5.650;2023-04-12T14:34:19;14.2;48.0
78467;SHT31;67759;51.972;5.650;2023-04-12T14:36:48;14.2;47.3
78467;SHT31;67759;51.972;5.650;2023-04-12T14:39:18;14.1;47.2
78467;SHT31;67759;51.972;5.650;2023-04-12T14:41:50;14.1;47.3
78467;SHT31;67759;51.972;5.650;2023-04-12T14:44:20;14.0;48.2
78467;SHT31;67759;51.972;5.650;2023-04-12T14:46:49;13.9;48.5
78467;SHT31;67759;51.972;5.650;2023-04-12T14:49:19;13.9;48.9
78467;SHT31;67759;51.972;5.650;2023-04-12T14:51:49;13.8;49.6
78467;SHT31;67759;51.972;5.650;2023-04-12T14:54:19;13.8;50.0
78467;SHT31;67759;51.972;5.650;2023-04-12T14:56:51;13.8;49.6
78467;SHT31;67759;51.972;5.650;2023-04-12T14:59:21;13.7;48.7
78467;SHT31;67759;51.972;5.650;2023-04-12T15:01:53;13.6;49.5
78467;SHT31;67759;51.972;5.650;2023-04-12T15:04:25;13.5;51.1
78467;SHT31;67759;51.972;5.650;2023-04-12T15:06:56;13.3;51.8
78467;SHT31;67759;51.972;5.650;2023-04-12T15:09:26;13.2;52.5
78467;SHT31;67759;51.972;5.650;2023-04-12T15:11:55;13.0;51.1
78467;SHT31;67759;51.972;5.650;2023-04-12T15:14:28;12.7;53.7
78467;SHT31;67759;51.972;5.650;2023-04-12T15:16:59;12.5;54.8
78467;SHT31;67759;51.972;5.650;2023-04-12T15:19:31;12.3;55.3
78467;SHT31;67759;51.972;5.650;2023-04-12T15:22:01;12.2;55.5
78467;SHT31;67759;51.972;5.650;2023-04-12T15:24:32;12.1;55.9
78467;SHT31;67759;51.972;5.650;2023-04-12T15:27:02;12.1;53.4
78467;SHT31;67759;51.972;5.650;2023-04-12T15:29:33;12.0;51.6
78467;SHT31;67759;51.972;5.650;2023-04-12T15:32:03;11.9;52.8
78467;SHT31;67759;51.972;5.650;2023-04-12T15:34:34;11.7;52.8
78467;SHT31;67759;51.972;5.650;2023-04-12T15:37:04;11.6;53.7
78467;SHT31;67759;51.972;5.650;2023-04-12T15:39:33;11.6;55.4
78467;SHT31;67759;51.972;5.650;2023-04-12T15:42:04;11.5;53.7
78467;SHT31;67759;51.972;5.650;2023-04-12T15:44:34;11.5;54.6
78467;SHT31;67759;51.972;5.650;2023-04-12T15:47:04;11.5;54.2
78467;SHT31;67759;51.972;5.650;2023-04-12T15:49:34;11.6;54.3
78467;SHT31;67759;51.972;5.650;2023-04-12T15:52:03;11.6;54.9
78467;SHT31;67759;51.972;5.650;2023-04-12T15:54:33;11.7;53.7
78467;SHT31;67759;51.972;5.650;2023-04-12T15:57:08;11.8;53.1
78467;SHT31;67759;51.972;5.650;2023-04-12T15:59:40;11.8;53.9
78467;SHT31;67759;51.972;5.650;2023-04-12T16:02:10;11.9;53.4
78467;SHT31;67759;51.972;5.650;2023-04-12T16:04:41;11.9;52.9
78467;SHT31;67759;51.972;5.650;2023-04-12T16:07:12;11.9;54.1
78467;SHT31;67759;51.972;5.650;2023-04-12T16:09:42;12.0;53.4
78467;SHT31;67759;51.972;5.650;2023-04-12T16:12:11;12.0;54.2
78467;SHT31;67759;51.972;5.650;2023-04-12T16:14:42;12.0;53.5
78467;SHT31;67759;51.972;5.650;2023-04-12T16:17:13;12.1;53.6
78467;SHT31;67759;51.972;5.650;2023-04-12T16:19:43;12.1;54.2
78467;SHT31;67759;51.972;5.650;2023-04-12T16:22:13;12.2;53.4
78467;SHT31;67759;51.972;5.650;2023-04-12T16:24:42;12.2;52.0
78467;SHT31;67759;51.972;5.650;2023-04-12T16:27:12;12.2;52.4
78467;SHT31;67759;51.972;5.650;2023-04-12T16:29:41;12.2;53.0
78467;SHT31;67759;51.972;5.650;2023-04-12T16:32:12;12.2;52.7
78467;SHT31;67759;51.972;5.650;2023-04-12T16:34:42;12.2;53.8